• Join FlightAware (Why Join?)
  • Login
  • US Flag 
01:25PM EDT


 

Airport Tracker/Info


-or-


 

Live Flight TrackerFlight Track Log ✈ N850UA ✈ 09-Apr-2013 ✈ KGRR - KORD

Flight Track Log - Related Links

Times and Time Zones

All times are in EDT time to prevent confusion due to time zone crossing. See the N850UA flight status page for this flight to view local times or setup timezone preferences in your user account.

Time Position Orientation Groundspeed Altitude Reporting Facility
EDT Latitude Longitude Course Direction KTS MPH feet Rate Location/Type
03:26PM 42.8669 -85.4606 239° Southwest 180 207 2,700  Level Chicago Center
03:27PM 42.8314 -85.5050 223° Southwest 211 243 5,200 2,940 Climbing Chicago Center
03:28PM 42.8092 -85.5897 250° West 232 267 8,800 2,760 Climbing Chicago Center
03:29PM 42.7839 -85.7655 236° Southwest  Level FlightAware Approximate
03:29PM 42.7781 -85.7044 250° West 264 304 11,000  Level Chicago Center
03:30PM 42.7667 -85.8269 270° West  Level FlightAware Approximate
03:30PM 42.7467 -85.8250 251° West 325 374 13,700  Level Chicago Center
03:31PM 42.7430 -85.8866 239° Southwest  Level FlightAware Approximate
03:31PM 42.7147 -85.9444 250° West 333 383 15,900  Level Chicago Center
03:32PM 42.7169 -85.9453 239° Southwest  Level FlightAware Approximate
03:32PM 42.6833 -86.0661 251° West 337 388 15,900  Level Chicago Center
03:33PM 42.6564 -86.1903 254° West 339 390 15,900  Level Chicago Center
03:34PM 42.6308 -86.3133 254° West 339 390 15,900  Level Chicago Center
03:35PM 42.6039 -86.4350 253° West 338 389 15,900  Level Chicago Center
03:36PM 42.5764 -86.5561 253° West 337 388 15,900  Level Chicago Center
03:37PM 42.5458 -86.7036 254° West 340 391 15,900  Level Chicago Center
03:39PM 42.5200 -86.8256 254° West 338 389 15,900 -480 Level Chicago Center
03:40PM 42.4936 -86.9475 254° West 338 389 15,000 -1,260 Descending Chicago Center
03:41PM 42.4636 -87.0667 251° West 337 388 13,300 -1,680 Descending Chicago Center
03:42PM 42.4344 -87.1881 252° West 341 392 11,600 -1,620 Descending Chicago Center
03:43PM 42.4008 -87.3050 249° West 336 387 10,000 -840 Descending Chicago Center
03:44PM 42.3706 -87.4183 250° West 318 366 9,900 -60 Descending Chicago Center
03:45PM 42.3297 -87.5444 246° West 318 366 9,900  Level Chicago Center
03:46PM 42.2594 -87.6175 218° Southwest 318 366 9,900  Level Chicago Center
03:47PM 42.1892 -87.6922 218° Southwest 322 371 9,900  Level Chicago Center
03:48PM 42.1281 -87.7561 218° Southwest 292 336 9,900  Level Chicago Center
03:49PM 42.0903 -87.8303 236° Southwest 269 310 10,000 -780 Climbing Chicago Center
03:50PM 42.1000 -87.9500 276° West 271 312 8,300 -960 Descending Chicago TRACON
03:51PM 42.1478 -88.0003 322° Northwest 244 281 8,100 -600 Descending Chicago Center
03:52PM 42.1933 -88.0375 329° Northwest 201 231 7,200 -540 Descending Chicago Center
03:53PM 42.2394 -88.0744 329° Northwest 194 223 7,000 -120 Descending Chicago Center
03:54PM 42.2836 -88.1119 328° Northwest 190 219 7,000  Level Chicago Center
03:55PM 42.3294 -88.1492 329° Northwest 191 220 7,000  Level Chicago Center
03:56PM 42.3411 -88.2044 286° West 172 198 7,000 -420 Level Chicago Center
03:57PM 42.2953 -88.1967 173° South 168 193 6,200 -840 Descending Chicago Center
03:58PM 42.2472 -88.1786 164° South 175 201 5,400 -780 Descending Chicago Center
03:59PM 42.1939 -88.1614 167° South 193 222 4,700 -540 Descending Chicago Center
04:00PM 42.1503 -88.1150 142° Southeast 194 223 4,300 -540 Descending Chicago Center
04:01PM 42.1167 -88.0667 133° Southeast 195 224 3,800 -660 Descending Chicago TRACON